Perthshire, Mississippi
Current Conditions -  °F | °C
As of 4:15 PM on Saturday 20 Dec 2014 (Local Time) from KRNV Reporting Station
Clear Clear  
Wind Chill: 51°   Ceiling: Unl
Heat Index: 51°   Visibility: 10mi
Dew Point: 40°   Wind: 7mph
Humidity: 65%   Direction: 20°NNE
Pressure: 30.21"   Gusts: NA
Location:  33.9429°N, 90.9264°W
Report Text: KRNV 202215Z AUTO 02006KT 10SM CLR 11/05 A3021 RMK AO2 T01080045
Loading
Personal Weather Stations






























Interactive Weather Map New forecast layout! Learn more

10-Day Weather Forecast

Advertisements
Track Severe Weather on mobile